Time;durP1;ratioP1;P1;durP2;ratioP2;P2;SDS_P1;SDS_P2;PMS_P1;PMS_P2;Temp;Humidity;BMP_temperature;BMP_pressure;BME280_temperature;BME280_humidity;BME280_pressure;Samples;Min_cycle;Max_cycle;Signal;HPM_P1;HPM_P2
2021/04/30 00:01:57;;;;;;;27.80;15.75;;;;;;;8.61;64.42;96296.74;1758296;80;25850;-85
2021/04/30 00:04:25;;;;;;;28.67;14.98;;;;;;;8.61;64.49;96299.43;1758217;80;27505;-84
2021/04/30 00:06:52;;;;;;;26.87;15.15;;;;;;;8.61;64.58;96300.78;1758125;80;26009;-85
2021/04/30 00:09:19;;;;;;;26.55;14.85;;;;;;;8.62;64.66;96302.42;1758192;80;25714;-85
2021/04/30 00:11:49;;;;;;;21.37;13.28;;;;;;;8.64;64.68;96302.50;1758158;80;25806;-85
2021/04/30 00:14:18;;;;;;;25.15;12.78;;;;;;;8.66;64.73;96306.31;1758200;80;26305;-85
2021/04/30 00:16:46;;;;;;;22.50;13.03;;;;;;;8.66;64.71;96302.28;1758860;80;27459;-85
2021/04/30 00:19:14;;;;;;;23.38;13.48;;;;;;;8.62;64.81;96307.28;1789826;78;25404;-85
2021/04/30 00:21:41;;;;;;;21.45;12.93;;;;;;;8.61;64.87;96296.22;1780358;78;25694;-86
2021/04/30 00:24:10;;;;;;;19.52;13.18;;;;;;;8.62;65.07;96294.35;1787406;78;25863;-85
2021/04/30 00:26:38;;;;;;;26.73;13.72;;;;;;;8.64;65.03;96300.33;1776731;78;25804;-85
2021/04/30 00:29:06;;;;;;;22.58;13.90;;;;;;;8.64;65.13;96298.98;1791957;78;28446;-85
2021/04/30 00:31:35;;;;;;;26.02;14.07;;;;;;;8.67;65.23;96295.86;1783619;78;25856;-84
2021/04/30 00:34:04;;;;;;;64.10;34.48;;;;;;;8.69;65.28;96288.38;1767770;78;25739;-84
2021/04/30 00:36:32;;;;;;;46.95;25.17;;;;;;;8.71;65.35;96283.57;1767485;79;25817;-85
2021/04/30 00:39:02;;;;;;;29.12;16.48;;;;;;;8.74;65.34;96293.06;1772349;78;25877;-84
2021/04/30 00:41:30;;;;;;;25.95;13.60;;;;;;;8.76;65.39;96291.80;1770658;78;27446;-84
2021/04/30 00:43:59;;;;;;;20.05;12.10;;;;;;;8.77;65.31;96284.03;1767775;78;26071;-85
2021/04/30 00:46:26;;;;;;;20.97;12.18;;;;;;;8.74;65.30;96288.50;1757000;80;25798;-85
2021/04/30 00:48:54;;;;;;;18.77;11.57;;;;;;;8.71;65.35;96286.27;1793958;78;26458;-84
2021/04/30 00:51:21;;;;;;;21.93;13.10;;;;;;;8.73;65.46;96289.55;1790750;78;25753;-84
2021/04/30 00:53:48;;;;;;;18.52;11.70;;;;;;;8.75;65.45;96296.87;1768447;78;28489;-84
2021/04/30 00:56:16;;;;;;;19.42;11.70;;;;;;;8.77;65.41;96294.78;1794424;78;26157;-85
2021/04/30 00:58:44;;;;;;;17.85;11.35;;;;;;;8.82;65.33;96304.33;1784596;79;25754;-84
2021/04/30 01:01:13;;;;;;;20.65;11.53;;;;;;;8.87;65.43;96320.63;1782120;78;26466;-85
2021/04/30 01:03:46;;;;;;;19.32;10.90;;;;;;;8.88;65.46;96314.72;1786378;78;26313;-84
2021/04/30 01:06:14;;;;;;;19.00;11.28;;;;;;;8.91;65.61;96320.48;1779788;78;27405;-85
2021/04/30 01:08:41;;;;;;;18.60;11.88;;;;;;;8.90;65.50;96324.22;1772745;78;26009;-84
2021/04/30 01:11:10;;;;;;;18.82;11.22;;;;;;;8.89;65.50;96331.99;1767020;78;37326;-83
2021/04/30 01:13:37;;;;;;;21.75;12.15;;;;;;;8.92;65.53;96335.58;1767676;78;25862;-83
2021/04/30 01:16:05;;;;;;;21.33;12.65;;;;;;;8.96;65.77;96341.31;1767678;79;25736;-83
2021/04/30 01:19:06;;;;;;;22.22;11.57;;;;;;;8.94;65.97;96340.71;1777740;78;28508;-83
2021/04/30 01:21:34;;;;;;;20.05;11.35;;;;;;;8.93;66.09;96348.00;1686547;83;26100;-84
2021/04/30 01:24:01;;;;;;;18.55;12.23;;;;;;;8.90;66.45;96366.45;1681787;83;25790;-82
2021/04/30 01:26:29;;;;;;;21.20;12.18;;;;;;;8.87;66.66;96367.72;1681802;83;25743;-82
2021/04/30 01:28:56;;;;;;;23.92;13.38;;;;;;;8.86;66.89;96385.44;1681812;83;25841;-82
2021/04/30 01:31:23;;;;;;;24.82;13.22;;;;;;;8.77;66.55;96406.45;1682769;83;27544;-82
2021/04/30 01:33:56;;;;;;;20.65;13.32;;;;;;;8.62;67.40;96405.98;1691373;84;26217;-82
2021/04/30 01:36:24;;;;;;;21.50;12.98;;;;;;;8.60;67.91;96404.86;1681588;83;25739;-82
2021/04/30 01:38:53;;;;;;;22.42;13.72;;;;;;;8.66;68.44;96397.26;1681939;83;25791;-82
2021/04/30 01:41:24;;;;;;;26.50;13.62;;;;;;;8.66;68.64;96391.88;1681780;83;25821;-82
2021/04/30 01:43:51;;;;;;;27.17;14.28;;;;;;;8.69;69.03;96396.52;1681814;83;27507;-82
2021/04/30 01:46:19;;;;;;;24.82;14.68;;;;;;;8.71;69.19;96404.64;1713780;81;26422;-83
2021/04/30 01:48:46;;;;;;;24.92;14.13;;;;;;;8.75;69.52;96394.27;1728481;81;25823;-83
2021/04/30 01:51:14;;;;;;;24.23;14.07;;;;;;;8.79;69.82;96403.02;1728485;81;25617;-83
2021/04/30 01:53:42;;;;;;;25.82;14.47;;;;;;;8.78;70.05;96403.23;1728492;81;25322;-83
2021/04/30 01:56:13;;;;;;;23.70;13.28;;;;;;;8.81;70.09;96400.94;1728602;82;27517;-83
2021/04/30 01:58:42;;;;;;;24.20;15.98;;;;;;;8.86;70.11;96397.55;1728070;81;25780;-83
2021/04/30 02:01:10;;;;;;;29.52;17.05;;;;;;;8.91;70.00;96399.05;1728521;81;25865;-83
2021/04/30 02:03:38;;;;;;;36.10;17.52;;;;;;;8.94;69.97;96406.13;1728542;81;25803;-83
2021/04/30 02:06:06;;;;;;;29.63;17.10;;;;;;;8.94;70.24;96398.06;1728565;81;25748;-83
2021/04/30 02:08:33;;;;;;;34.53;19.48;;;;;;;8.89;70.52;96401.97;1731518;81;27539;-83
2021/04/30 02:11:01;;;;;;;39.18;20.25;;;;;;;8.88;70.45;96411.61;1731594;81;26417;-83
2021/04/30 02:13:28;;;;;;;35.03;19.35;;;;;;;8.92;70.51;96410.13;1732200;81;25763;-83
2021/04/30 02:15:56;;;;;;;31.80;18.52;;;;;;;8.96;70.62;96409.95;1728673;81;26321;-83
2021/04/30 02:18:24;;;;;;;32.33;19.32;;;;;;;9.00;70.76;96411.98;1733848;81;25751;-84
2021/04/30 02:20:52;;;;;;;35.68;18.92;;;;;;;8.99;70.91;96413.02;1724208;82;27569;-84
2021/04/30 02:23:21;;;;;;;34.23;19.82;;;;;;;8.97;71.24;96411.07;1718724;82;25768;-84
2021/04/30 02:25:49;;;;;;;33.67;19.02;;;;;;;8.97;71.25;96411.07;1711817;82;25810;-83
2021/04/30 02:28:16;;;;;;;32.17;18.98;;;;;;;9.01;71.53;96411.45;1697993;82;25782;-83
2021/04/30 02:30:44;;;;;;;34.45;19.57;;;;;;;9.04;71.41;96405.63;1697735;82;25332;-83
2021/04/30 02:33:12;;;;;;;33.48;20.48;;;;;;;9.08;71.75;96410.02;1698048;82;27468;-84
2021/04/30 02:35:43;;;;;;;34.80;20.92;;;;;;;9.03;71.96;96396.73;1697617;83;25802;-83
2021/04/30 02:38:13;;;;;;;31.42;19.27;;;;;;;9.04;71.91;96393.52;1697924;82;25765;-84
2021/04/30 02:40:43;;;;;;;36.88;20.10;;;;;;;9.05;72.11;96397.03;1697682;83;25839;-84
2021/04/30 02:43:14;;;;;;;38.48;20.85;;;;;;;9.07;72.21;96400.28;1671262;84;25733;-83
2021/04/30 02:45:43;;;;;;;33.38;20.23;;;;;;;9.09;72.23;96404.41;1673794;85;28496;-83
2021/04/30 02:48:13;;;;;;;31.30;20.30;;;;;;;9.13;72.24;96394.02;1672782;84;25794;-84
2021/04/30 02:50:42;;;;;;;34.43;19.30;;;;;;;9.18;72.20;96402.22;1697588;83;26049;-83
2021/04/30 02:53:10;;;;;;;35.00;20.25;;;;;;;9.22;72.21;96408.28;1697936;84;25816;-83
2021/04/30 02:55:37;;;;;;;33.33;18.75;;;;;;;9.26;72.24;96402.75;1668347;84;26086;-84
2021/04/30 02:58:05;;;;;;;34.55;18.23;;;;;;;9.26;72.44;96408.13;1697724;83;28396;-84
2021/04/30 03:00:32;;;;;;;35.30;18.67;;;;;;;9.23;72.63;96409.10;1697910;82;25866;-83
2021/04/30 03:03:02;;;;;;;29.23;17.65;;;;;;;9.22;72.74;96408.80;1697625;83;25792;-83
2021/04/30 03:05:29;;;;;;;28.70;17.52;;;;;;;9.19;72.90;96403.86;1697900;82;25858;-84
2021/04/30 03:07:57;;;;;;;33.15;18.37;;;;;;;9.18;73.10;96399.52;1697722;83;25821;-84
2021/04/30 03:10:24;;;;;;;31.82;18.70;;;;;;;9.17;73.13;96393.87;1697987;84;28483;-84
2021/04/30 03:12:51;;;;;;;30.70;18.95;;;;;;;9.20;73.25;96400.12;1697629;83;25712;-84
2021/04/30 03:15:19;;;;;;;27.90;17.73;;;;;;;9.25;73.33;96400.28;1668237;84;25806;-84
2021/04/30 03:17:48;;;;;;;29.95;17.65;;;;;;;9.28;73.33;96408.73;1701903;83;26481;-83
2021/04/30 03:20:18;;;;;;;28.50;17.57;;;;;;;9.33;73.27;96424.19;1704084;83;25825;-84
2021/04/30 03:22:46;;;;;;;26.42;16.65;;;;;;;9.37;73.46;96405.19;1703223;82;27574;-83
2021/04/30 03:25:16;;;;;;;27.02;17.52;;;;;;;9.34;73.57;96410.50;1702573;84;25725;-83
2021/04/30 03:27:44;;;;;;;25.17;17.42;;;;;;;9.32;73.71;96406.39;1702711;83;26397;-82
2021/04/30 03:30:13;;;;;;;29.75;17.42;;;;;;;9.33;73.82;96398.61;1702706;82;25793;-82
2021/04/30 03:32:41;;;;;;;31.60;19.20;;;;;;;9.35;73.82;96391.95;1702587;83;25781;-83
2021/04/30 03:35:15;;;;;;;33.45;18.15;;;;;;;9.39;73.92;96396.36;1702593;83;27519;-83
2021/04/30 03:37:39;;;;;;;29.32;17.57;;;;;;;9.37;74.17;96406.02;1725018;81;25906;-83
2021/04/30 03:40:08;;;;;;;34.48;18.77;;;;;;;9.33;74.31;96400.77;1725661;81;25843;-83
2021/04/30 03:42:35;;;;;;;28.92;18.12;;;;;;;9.30;74.38;96401.75;1725650;82;25519;-83
2021/04/30 03:45:03;;;;;;;29.70;17.85;;;;;;;9.32;74.32;96405.04;1725664;82;25899;-83
2021/04/30 03:47:30;;;;;;;29.18;18.57;;;;;;;9.33;74.41;96405.34;1731421;81;27514;-83
2021/04/30 03:49:58;;;;;;;27.62;16.60;;;;;;;9.33;74.49;96414.77;1731548;81;26144;-83
2021/04/30 03:52:25;;;;;;;28.65;17.23;;;;;;;9.36;74.57;96415.14;1731727;81;25827;-84
2021/04/30 03:54:52;;;;;;;25.60;17.00;;;;;;;9.39;74.49;96418.73;1702011;82;25772;-84
2021/04/30 03:57:20;;;;;;;29.65;17.45;;;;;;;9.45;74.50;96422.89;1725636;81;25715;-83
2021/04/30 03:59:47;;;;;;;27.00;16.67;;;;;;;9.48;74.50;96416.53;1725692;81;27606;-83
2021/04/30 04:02:14;;;;;;;29.20;17.48;;;;;;;9.50;74.76;96418.48;1726020;81;25580;-83
2021/04/30 04:04:42;;;;;;;34.95;19.23;;;;;;;9.49;74.77;96416.02;1727021;81;25826;-82
2021/04/30 04:07:09;;;;;;;32.48;18.40;;;;;;;9.53;74.78;96420.73;1725657;81;26587;-83
2021/04/30 04:09:36;;;;;;;32.98;18.27;;;;;;;9.58;74.82;96427.58;1725689;81;25326;-83
2021/04/30 04:12:06;;;;;;;39.23;19.25;;;;;;;9.61;74.95;96422.27;1725652;81;27543;-82
2021/04/30 04:14:33;;;;;;;31.93;19.62;;;;;;;9.60;74.99;96428.70;1725630;81;25792;-82
2021/04/30 04:17:00;;;;;;;33.30;18.52;;;;;;;9.57;74.97;96426.45;1725659;81;25754;-83
2021/04/30 04:19:28;;;;;;;29.72;18.70;;;;;;;9.57;75.03;96427.28;1726403;81;25762;-83
2021/04/30 04:21:55;;;;;;;28.12;17.80;;;;;;;9.60;75.21;96430.88;1731593;81;25886;-83
2021/04/30 04:24:22;;;;;;;32.20;19.20;;;;;;;9.58;75.33;96420.84;1731705;81;27497;-83
2021/04/30 04:26:50;;;;;;;33.15;20.32;;;;;;;9.62;75.24;96420.70;1726845;81;25767;-83
2021/04/30 04:29:17;;;;;;;29.55;18.98;;;;;;;9.67;75.39;96428.07;1725751;81;25689;-84
2021/04/30 04:31:44;;;;;;;34.43;20.75;;;;;;;9.67;75.45;96431.59;1725653;82;25777;-84
2021/04/30 04:34:12;;;;;;;34.25;21.20;;;;;;;9.72;75.43;96441.69;1725576;81;25704;-83
2021/04/30 04:36:39;;;;;;;38.33;20.50;;;;;;;9.77;75.46;96439.14;1725596;81;28295;-83
2021/04/30 04:39:06;;;;;;;30.15;19.15;;;;;;;9.81;75.45;96451.61;1725562;81;25691;-83
2021/04/30 04:41:34;;;;;;;29.37;18.87;;;;;;;9.86;75.44;96449.89;1725712;81;25768;-83
2021/04/30 04:44:01;;;;;;;31.05;19.48;;;;;;;9.89;75.53;96448.61;1725611;81;26298;-84
2021/04/30 04:46:29;;;;;;;35.48;22.80;;;;;;;9.94;75.49;96451.42;1725617;82;25895;-84
2021/04/30 04:48:56;;;;;;;41.73;25.92;;;;;;;9.98;75.40;96453.96;1725583;81;27538;-83
2021/04/30 04:51:23;;;;;;;43.68;27.90;;;;;;;10.03;75.38;96460.81;1725556;81;25737;-83
2021/04/30 04:53:50;;;;;;;42.38;28.87;;;;;;;10.03;75.50;96460.29;1727005;81;25716;-83
2021/04/30 04:56:24;;;;;;;42.50;26.82;;;;;;;10.04;75.51;96457.07;1731691;82;26096;-83
2021/04/30 04:58:49;;;;;;;51.08;30.52;;;;;;;10.04;75.48;96463.81;1730847;81;26268;-84
2021/04/30 05:01:16;;;;;;;59.93;34.40;;;;;;;10.07;75.55;96474.97;1731649;81;27569;-83
2021/04/30 05:03:44;;;;;;;94.35;49.83;;;;;;;10.11;75.59;96478.03;1731517;81;25812;-84
2021/04/30 05:06:11;;;;;;;99.47;52.17;;;;;;;10.15;75.55;96487.28;1725942;81;25752;-85
2021/04/30 05:08:39;;;;;;;76.20;42.45;;;;;;;10.14;75.62;96484.32;1725590;81;25772;-84
2021/04/30 05:11:06;;;;;;;56.90;35.78;;;;;;;10.09;75.58;96493.61;1725780;81;25811;-83
2021/04/30 05:13:34;;;;;;;55.28;31.87;;;;;;;10.07;75.66;96497.88;1725551;82;27483;-84
2021/04/30 05:16:03;;;;;;;46.18;28.00;;;;;;;10.10;75.71;96499.30;1725496;81;25418;-84
2021/04/30 05:18:31;;;;;;;43.28;28.30;;;;;;;10.13;75.72;96499.38;1725574;81;25741;-84
2021/04/30 05:20:58;;;;;;;41.90;26.93;;;;;;;10.17;75.71;96505.94;1723759;81;26544;-84
2021/04/30 05:23:28;;;;;;;50.80;30.90;;;;;;;10.17;75.71;96502.71;1718336;81;25776;-84
2021/04/30 05:25:57;;;;;;;53.15;33.00;;;;;;;10.12;75.79;96498.55;1718499;81;27776;-84
2021/04/30 05:28:24;;;;;;;49.67;30.52;;;;;;;10.10;75.85;96500.66;1718382;83;25752;-84
2021/04/30 05:30:51;;;;;;;47.83;28.87;;;;;;;10.11;75.98;96509.05;1718438;83;25744;-84
2021/04/30 05:33:19;;;;;;;60.65;36.30;;;;;;;10.10;76.14;96511.44;1718255;81;25839;-85
2021/04/30 05:35:46;;;;;;;76.28;44.93;;;;;;;10.05;76.20;96509.95;1718355;83;25727;-84
2021/04/30 05:38:13;;;;;;;78.05;45.83;;;;;;;10.05;76.34;96515.34;1718447;81;28484;-84
2021/04/30 05:40:41;;;;;;;72.50;46.60;;;;;;;10.04;76.32;96520.43;1718324;81;25815;-84
2021/04/30 05:43:08;;;;;;;72.15;43.87;;;;;;;10.08;76.32;96529.19;1718430;81;25795;-84
2021/04/30 05:45:36;;;;;;;68.20;41.68;;;;;;;10.14;76.37;96518.03;1718317;81;25792;-84
2021/04/30 05:48:04;;;;;;;60.35;40.12;;;;;;;10.15;76.28;96514.25;1718554;83;25829;-84
2021/04/30 05:50:31;;;;;;;67.05;41.30;;;;;;;10.20;76.29;96524.39;1718536;81;27504;-84
2021/04/30 05:52:59;;;;;;;61.30;39.38;;;;;;;10.24;76.32;96529.63;1718470;83;25800;-84
2021/04/30 05:55:26;;;;;;;63.48;40.28;;;;;;;10.29;76.29;96541.36;1723651;81;25381;-83
2021/04/30 05:57:54;;;;;;;63.28;38.90;;;;;;;10.29;76.36;96528.39;1676910;84;26201;-84
2021/04/30 06:00:22;;;;;;;57.30;37.17;;;;;;;10.29;76.30;96526.52;1701769;83;25787;-84
2021/04/30 06:02:49;;;;;;;61.20;39.03;;;;;;;10.30;76.35;96530.86;1701817;84;28469;-82
2021/04/30 06:05:16;;;;;;;65.05;40.75;;;;;;;10.33;76.39;96531.76;1701672;83;25727;-84
2021/04/30 06:07:44;;;;;;;59.18;35.70;;;;;;;10.36;76.30;96536.70;1724201;81;25957;-84
2021/04/30 06:10:12;;;;;;;56.95;35.55;;;;;;;10.39;76.27;96546.19;1677009;84;26615;-84
2021/04/30 06:12:39;;;;;;;62.25;37.03;;;;;;;10.43;76.27;96552.25;1701682;83;25809;-84
2021/04/30 06:15:07;;;;;;;55.03;34.80;;;;;;;10.48;76.25;96543.47;1701676;83;27715;-84
2021/04/30 06:17:35;;;;;;;54.27;32.42;;;;;;;10.49;76.31;96542.95;1701535;83;25795;-84
2021/04/30 06:20:02;;;;;;;43.25;29.35;;;;;;;10.48;76.36;96545.34;1724226;81;26093;-84
2021/04/30 06:22:30;;;;;;;44.30;29.37;;;;;;;10.44;76.41;96544.45;1676567;84;25951;-84
2021/04/30 06:24:58;;;;;;;46.90;30.30;;;;;;;10.43;76.48;96548.20;1706660;82;25731;-84
2021/04/30 06:27:25;;;;;;;50.08;32.20;;;;;;;10.42;76.47;96556.52;1706022;82;28647;-84
2021/04/30 06:29:53;;;;;;;50.88;33.78;;;;;;;10.45;76.47;96555.55;1731694;82;25833;-85
2021/04/30 06:32:20;;;;;;;54.70;34.45;;;;;;;10.50;76.51;96556.73;1731817;81;25704;-85
2021/04/30 06:34:48;;;;;;;57.20;36.17;;;;;;;10.51;76.65;96559.70;1731597;81;25837;-84
2021/04/30 06:37:17;;;;;;;57.73;35.92;;;;;;;10.52;76.54;96555.95;1731776;81;26017;-84
2021/04/30 06:39:44;;;;;;;51.90;34.75;;;;;;;10.56;76.49;96545.83;1731782;81;27790;-84
2021/04/30 06:42:12;;;;;;;56.08;34.98;;;;;;;10.61;76.62;96558.63;1731734;81;25756;-84
2021/04/30 06:44:39;;;;;;;48.92;33.42;;;;;;;10.66;76.58;96559.56;1731784;81;25343;-85
2021/04/30 06:47:06;;;;;;;54.40;33.20;;;;;;;10.74;76.51;96555.72;1731782;81;25871;-84
2021/04/30 06:49:34;;;;;;;48.58;33.53;;;;;;;10.81;76.50;96561.83;1731637;81;25753;-84
2021/04/30 06:52:01;;;;;;;48.30;32.40;;;;;;;10.86;76.60;96559.26;1731761;81;27703;-84
2021/04/30 06:54:29;;;;;;;49.15;33.08;;;;;;;10.93;76.66;96569.41;1728694;81;25786;-84
2021/04/30 06:56:56;;;;;;;49.08;33.60;;;;;;;10.93;76.71;96572.63;1731626;81;25725;-84
2021/04/30 06:59:24;;;;;;;46.45;28.83;;;;;;;10.93;76.65;96570.75;1731642;81;25836;-84
2021/04/30 07:01:51;;;;;;;44.70;30.48;;;;;;;10.94;76.76;96568.35;1731723;81;25781;-85
2021/04/30 07:04:20;;;;;;;42.25;28.17;;;;;;;10.92;76.73;96573.69;1731744;81;28549;-85
2021/04/30 07:06:47;;;;;;;43.23;27.00;;;;;;;10.94;76.76;96572.41;1731751;81;25711;-84
2021/04/30 07:09:15;;;;;;;40.30;26.73;;;;;;;10.99;76.65;96571.16;1731770;81;25796;-85
2021/04/30 07:11:42;;;;;;;46.20;29.92;;;;;;;11.06;76.67;96569.18;1731707;81;25800;-85
2021/04/30 07:14:10;;;;;;;47.62;30.82;;;;;;;11.11;76.77;96566.58;1731789;81;25564;-85
2021/04/30 07:16:37;;;;;;;43.28;30.75;;;;;;;11.16;77.00;96557.78;1731737;81;28493;-85
2021/04/30 07:19:05;;;;;;;44.73;29.87;;;;;;;11.17;77.06;96562.95;1731582;81;25799;-84
2021/04/30 07:21:32;;;;;;;38.40;26.40;;;;;;;11.24;77.22;96570.10;1729662;81;25871;-85
2021/04/30 07:23:59;;;;;;;39.30;26.50;;;;;;;11.31;77.22;96574.88;1673882;84;25854;-85
2021/04/30 07:26:27;;;;;;;41.77;26.82;;;;;;;11.41;77.06;96577.27;1673919;84;25818;-85
2021/04/30 07:28:54;;;;;;;40.88;25.95;;;;;;;11.50;76.92;96581.77;1673892;84;27788;-85
2021/04/30 07:31:23;;;;;;;38.85;27.13;;;;;;;11.58;76.74;96585.48;1703518;82;26114;-85
2021/04/30 07:33:51;;;;;;;46.25;29.20;;;;;;;11.63;76.74;96588.28;1695875;83;25782;-85
2021/04/30 07:36:18;;;;;;;44.08;31.02;;;;;;;11.70;76.78;96585.47;1695512;83;25918;-84
2021/04/30 07:38:46;;;;;;;45.85;30.08;;;;;;;11.77;76.82;96585.64;1712635;81;25745;-84
2021/04/30 07:41:13;;;;;;;50.33;30.90;;;;;;;11.85;76.75;96579.03;1712669;81;27663;-84
2021/04/30 07:43:42;;;;;;;42.95;29.65;;;;;;;11.90;76.56;96586.73;1712384;81;26242;-84
2021/04/30 07:46:09;;;;;;;36.17;26.93;;;;;;;11.91;76.58;96590.26;1712498;83;25723;-84
2021/04/30 07:48:37;;;;;;;37.90;27.50;;;;;;;11.93;76.54;96588.14;1712598;83;26482;-84
2021/04/30 07:51:04;;;;;;;41.50;27.73;;;;;;;11.99;76.47;96598.52;1712494;81;25839;-84
2021/04/30 07:53:34;;;;;;;35.23;23.75;;;;;;;12.06;76.52;96607.33;1713331;81;27483;-84
2021/04/30 07:56:04;;;;;;;36.35;25.55;;;;;;;12.08;76.57;96607.89;1673765;84;25878;-85
2021/04/30 07:58:31;;;;;;;44.77;30.88;;;;;;;12.09;76.38;96606.83;1703569;82;25378;-84
2021/04/30 08:00:59;;;;;;;39.83;29.50;;;;;;;12.06;76.13;96595.16;1695843;83;25994;-84
2021/04/30 08:03:27;;;;;;;34.38;25.77;;;;;;;12.07;76.30;96594.10;1695243;83;25775;-84
2021/04/30 08:05:55;;;;;;;31.95;23.57;;;;;;;12.20;76.69;96581.61;1690283;83;27512;-84
2021/04/30 08:08:23;;;;;;;23.42;15.90;;;;;;;12.35;76.42;96595.97;1690275;83;25811;-84
2021/04/30 08:10:50;;;;;;;23.15;17.07;;;;;;;12.46;75.91;96602.69;1690272;83;25781;-83
2021/04/30 08:13:18;;;;;;;19.65;14.78;;;;;;;12.52;75.46;96597.67;1690251;83;26466;-85
2021/04/30 08:15:46;;;;;;;18.27;13.75;;;;;;;12.61;75.15;96596.73;1712526;83;25857;-84
2021/04/30 08:18:13;;;;;;;16.40;11.50;;;;;;;12.71;74.96;96602.33;1712479;82;27709;-84
2021/04/30 08:20:41;;;;;;;17.07;11.15;;;;;;;12.80;74.55;96601.41;1712427;83;25797;-84
2021/04/30 08:23:08;;;;;;;20.00;14.05;;;;;;;12.88;74.07;96598.29;1698614;82;26293;-83
2021/04/30 08:25:36;;;;;;;25.85;18.10;;;;;;;12.97;73.90;96603.58;1692202;84;25809;-84
2021/04/30 08:28:04;;;;;;;56.73;33.55;;;;;;;13.11;73.95;96602.73;1703438;83;25785;-83
2021/04/30 08:30:31;;;;;;;33.25;21.33;;;;;;;13.31;74.09;96601.17;1703284;84;27512;-85
2021/04/30 08:32:58;;;;;;;14.98;11.75;;;;;;;13.54;73.91;96597.98;1703276;83;25757;-85
2021/04/30 08:35:26;;;;;;;13.80;11.03;;;;;;;13.62;73.60;96600.28;1703336;82;25857;-84
2021/04/30 08:37:53;;;;;;;20.60;13.53;;;;;;;13.71;73.06;96604.20;1703295;83;25786;-86
2021/04/30 08:40:21;;;;;;;19.48;14.18;;;;;;;13.81;72.87;96608.40;1703287;82;25766;-86
2021/04/30 08:42:53;;;;;;;18.87;12.55;;;;;;;13.86;72.31;96607.13;1703211;82;27515;-86
2021/04/30 08:45:21;;;;;;;17.87;10.53;;;;;;;13.89;72.05;96609.31;1703404;83;26299;-84
2021/04/30 08:47:48;;;;;;;12.03;9.63;;;;;;;13.91;72.06;96612.59;1703301;82;25802;-84
2021/04/30 08:50:16;;;;;;;14.43;9.90;;;;;;;13.96;71.69;96606.43;1703257;83;25860;-86
2021/04/30 08:52:45;;;;;;;14.43;10.50;;;;;;;13.98;71.57;96606.47;1703418;83;26473;-86
2021/04/30 08:55:15;;;;;;;16.10;10.95;;;;;;;14.02;71.28;96603.52;1705686;82;27313;-86
2021/04/30 08:57:45;;;;;;;14.38;11.03;;;;;;;14.06;70.80;96604.66;1706236;82;26396;-87
2021/04/30 09:00:15;;;;;;;19.35;13.53;;;;;;;14.09;70.71;96603.34;1705107;82;26035;-84
2021/04/30 09:02:42;;;;;;;18.30;12.45;;;;;;;14.11;70.74;96610.70;1733930;81;25720;-86
2021/04/30 09:05:13;;;;;;;14.85;11.83;;;;;;;13.93;70.66;96607.75;1734025;81;25882;-86
2021/04/30 09:07:44;;;;;;;14.65;12.05;;;;;;;13.73;70.63;96606.12;1733871;81;27497;-86
2021/04/30 09:10:15;;;;;;;15.72;10.88;;;;;;;13.54;70.64;96616.95;1706218;82;25913;-86
2021/04/30 09:12:42;;;;;;;16.17;11.73;;;;;;;13.43;70.87;96617.87;1711389;82;26589;-86
2021/04/30 09:15:22;;;;;;;20.02;16.27;;;;;;;13.33;70.93;96624.80;1733888;81;25798;-86
2021/04/30 09:17:50;;;;;;;24.90;18.77;;;;;;;13.27;71.20;96626.33;1733960;81;25770;-86
2021/04/30 09:20:17;;;;;;;27.65;20.17;;;;;;;13.25;71.94;96623.86;1733874;81;27490;-86
2021/04/30 09:22:45;;;;;;;30.08;19.82;;;;;;;13.26;72.27;96621.98;1730699;81;25832;-87
2021/04/30 09:25:16;;;;;;;36.98;22.95;;;;;;;13.31;72.32;96620.15;1725456;81;25840;-87
2021/04/30 09:27:53;;;;;;;31.75;19.75;;;;;;;13.40;72.23;96621.94;1725604;81;26538;-85
2021/04/30 09:30:32;;;;;;;21.82;14.75;;;;;;;13.48;72.25;96631.52;1725771;81;25774;-87
2021/04/30 09:33:25;;;;;;;22.05;13.85;;;;;;;13.55;71.78;96632.98;1734485;81;27559;-86
2021/04/30 09:35:54;;;;;;;;;;;;;;;13.60;71.51;96633.06;1728212;82;26154;-85
2021/04/30 09:38:33;;;;;;;23.83;15.58;;;;;;;13.63;71.97;96630.40;1725490;81;25685;-85
2021/04/30 09:41:07;;;;;;;23.00;16.80;;;;;;;13.52;71.55;96621.84;1725613;81;26547;-86
2021/04/30 09:43:51;;;;;;;39.35;25.72;;;;;;;13.51;72.05;96616.13;1725683;81;25868;-85
2021/04/30 09:46:34;;;;;;;28.85;19.17;;;;;;;13.59;72.35;96617.05;1725371;81;27760;-86
2021/04/30 09:49:12;;;;;;;28.27;20.05;;;;;;;13.70;72.04;96617.47;1725564;81;25839;-87
2021/04/30 09:51:50;;;;;;;25.50;17.67;;;;;;;13.82;71.49;96623.61;1725631;81;25922;-86
2021/04/30 09:54:23;;;;;;;23.77;18.27;;;;;;;13.93;71.29;96624.02;1728086;81;26445;-86
2021/04/30 09:57:16;;;;;;;22.22;16.07;;;;;;;14.04;71.23;96628.51;1730351;81;25817;-87
2021/04/30 09:59:59;;;;;;;;;;;;;;;14.16;71.33;96624.84;1734323;81;27616;-86
2021/04/30 10:02:29;;;;;;;15.95;12.68;;;;;;;14.22;71.03;96625.20;1709823;81;25741;-87
2021/04/30 10:04:59;;;;;;;16.15;12.58;;;;;;;14.36;70.70;96619.68;1735736;81;25693;-87
2021/04/30 10:07:33;;;;;;;17.15;13.40;;;;;;;14.51;70.40;96617.14;1712955;82;25806;-86
2021/04/30 10:10:11;;;;;;;22.58;16.37;;;;;;;14.65;70.39;96622.99;1717862;81;25788;-86
2021/04/30 10:12:41;;;;;;;19.35;12.93;;;;;;;14.65;70.11;96623.81;1725617;81;27728;-86
2021/04/30 10:15:13;;;;;;;17.48;14.35;;;;;;;14.63;69.86;96621.06;1709126;81;25816;-86
2021/04/30 10:17:40;;;;;;;16.07;11.60;;;;;;;14.66;69.67;96623.28;1724658;81;25879;-84
2021/04/30 10:20:12;;;;;;;16.27;11.48;;;;;;;14.80;69.17;96622.34;1725558;81;25794;-84
2021/04/30 10:22:43;;;;;;;14.93;12.03;;;;;;;14.89;68.97;96622.14;1724561;81;25973;-86
2021/04/30 10:25:15;;;;;;;14.18;11.12;;;;;;;14.90;68.77;96618.35;1718304;83;27701;-86
2021/04/30 10:27:51;;;;;;;15.03;11.38;;;;;;;15.00;68.74;96630.67;1718448;81;25846;-85
2021/04/30 10:30:46;;;;;;;14.18;10.55;;;;;;;15.07;68.18;96625.86;1718332;81;25905;-86
2021/04/30 10:33:46;;;;;;;14.73;11.12;;;;;;;15.16;67.68;96621.58;1718452;81;25837;-86
2021/04/30 10:36:29;;;;;;;16.93;12.13;;;;;;;15.28;67.31;96615.96;1718661;81;25775;-86
2021/04/30 10:38:59;;;;;;;18.82;13.45;;;;;;;15.53;67.20;96616.69;1718559;83;27511;-85
2021/04/30 10:41:41;;;;;;;16.30;12.18;;;;;;;15.64;67.24;96620.61;1718368;81;25756;-85
2021/04/30 10:44:24;;;;;;;16.37;11.90;;;;;;;15.76;67.08;96614.97;1718574;83;25912;-86
2021/04/30 10:46:56;;;;;;;16.93;12.07;;;;;;;15.63;66.34;96584.14;1704120;81;25828;-85
2021/04/30 10:49:24;;;;;;;;;;;;;;;15.88;66.63;96610.14;1701667;81;25724;-85
2021/04/30 10:52:16;;;;;;;20.12;11.22;;;;;;;15.88;66.27;96608.77;1718545;83;27718;-85
2021/04/30 10:54:40;;;;;;;13.20;10.55;;;;;;;15.82;66.03;96607.09;1711337;81;25800;-85
2021/04/30 10:57:20;;;;;;;14.98;12.35;;;;;;;15.84;66.12;96602.20;1691633;83;25862;-85
2021/04/30 10:59:52;;;;;;;24.07;14.15;;;;;;;15.91;65.90;96594.64;1703757;82;26415;-84
2021/04/30 11:02:30;;;;;;;16.67;12.45;;;;;;;15.84;65.87;96594.87;1703613;83;25348;-85
2021/04/30 11:05:11;;;;;;;21.87;14.70;;;;;;;15.91;65.60;96593.28;1703792;82;28720;-85
2021/04/30 11:07:49;;;;;;;17.65;12.55;;;;;;;15.94;65.61;96595.45;1703317;83;26029;-85
2021/04/30 11:10:31;;;;;;;15.60;11.25;;;;;;;16.08;65.49;96595.25;1703675;82;25789;-85
2021/04/30 11:13:14;;;;;;;18.35;10.72;;;;;;;16.08;65.17;96596.61;1703556;82;26505;-85
2021/04/30 11:15:51;;;;;;;12.98;9.93;;;;;;;16.13;65.30;96600.73;1673913;85;25763;-84
2021/04/30 11:18:23;;;;;;;10.45;8.93;;;;;;;16.36;65.13;96603.54;1673858;84;27515;-85
2021/04/30 11:21:05;;;;;;;12.73;9.33;;;;;;;16.58;64.10;96600.05;1673322;85;26137;-84
2021/04/30 11:23:50;;;;;;;14.13;8.20;;;;;;;16.89;64.18;96595.53;1703272;83;25721;-85
2021/04/30 11:26:18;;;;;;;20.45;10.32;;;;;;;17.39;63.37;96591.72;1702142;82;25789;-85
2021/04/30 11:29:00;;;;;;;10.85;8.73;;;;;;;17.74;63.08;96590.88;1702635;84;25829;-85
2021/04/30 11:31:31;;;;;;;8.63;6.75;;;;;;;18.10;61.73;96592.41;1725889;81;27508;-85
2021/04/30 11:34:16;;;;;;;7.22;6.25;;;;;;;18.27;60.21;96591.50;1725850;81;25775;-85